sensor_id;sensor_type;location;lat;lon;timestamp;P1;durP1;ratioP1;P2;durP2;ratioP2
19364;SDS011;9818;48.382;10.850;2022-08-21T00:00:54;1.97;;;1.63;;
19364;SDS011;9818;48.382;10.850;2022-08-21T00:03:23;1.70;;;1.60;;
19364;SDS011;9818;48.382;10.850;2022-08-21T00:05:55;1.73;;;1.63;;
19364;SDS011;9818;48.382;10.850;2022-08-21T00:08:25;2.40;;;2.00;;
19364;SDS011;9818;48.382;10.850;2022-08-21T00:10:55;1.90;;;1.80;;
19364;SDS011;9818;48.382;10.850;2022-08-21T00:13:25;2.20;;;2.00;;
19364;SDS011;9818;48.382;10.850;2022-08-21T00:15:55;2.10;;;1.90;;
19364;SDS011;9818;48.382;10.850;2022-08-21T00:18:24;2.00;;;1.80;;
19364;SDS011;9818;48.382;10.850;2022-08-21T00:20:58;2.57;;;1.80;;
19364;SDS011;9818;48.382;10.850;2022-08-21T00:23:27;2.20;;;1.80;;
19364;SDS011;9818;48.382;10.850;2022-08-21T00:25:56;2.27;;;1.97;;
19364;SDS011;9818;48.382;10.850;2022-08-21T00:28:25;1.73;;;1.63;;
19364;SDS011;9818;48.382;10.850;2022-08-21T00:30:54;1.83;;;1.70;;
19364;SDS011;9818;48.382;10.850;2022-08-21T00:33:23;2.10;;;1.90;;
19364;SDS011;9818;48.382;10.850;2022-08-21T00:35:53;2.03;;;1.83;;
19364;SDS011;9818;48.382;10.850;2022-08-21T00:38:24;2.27;;;1.87;;
19364;SDS011;9818;48.382;10.850;2022-08-21T00:40:53;2.37;;;2.17;;
19364;SDS011;9818;48.382;10.850;2022-08-21T00:43:25;2.20;;;2.00;;
19364;SDS011;9818;48.382;10.850;2022-08-21T00:45:56;2.27;;;2.00;;
19364;SDS011;9818;48.382;10.850;2022-08-21T00:48:26;1.97;;;1.80;;
19364;SDS011;9818;48.382;10.850;2022-08-21T00:50:55;2.67;;;2.00;;
19364;SDS011;9818;48.382;10.850;2022-08-21T00:53:30;2.13;;;1.93;;
19364;SDS011;9818;48.382;10.850;2022-08-21T00:56:00;2.93;;;2.00;;
19364;SDS011;9818;48.382;10.850;2022-08-21T00:58:30;1.90;;;1.80;;
19364;SDS011;9818;48.382;10.850;2022-08-21T01:01:01;2.30;;;1.97;;
19364;SDS011;9818;48.382;10.850;2022-08-21T01:03:32;3.13;;;2.03;;
19364;SDS011;9818;48.382;10.850;2022-08-21T01:06:01;1.87;;;1.77;;
19364;SDS011;9818;48.382;10.850;2022-08-21T01:31:02;3.83;;;1.90;;
19364;SDS011;9818;48.382;10.850;2022-08-21T01:33:33;2.00;;;1.70;;
19364;SDS011;9818;48.382;10.850;2022-08-21T01:36:03;1.73;;;1.60;;
19364;SDS011;9818;48.382;10.850;2022-08-21T01:38:32;1.87;;;1.77;;
19364;SDS011;9818;48.382;10.850;2022-08-21T01:41:01;2.50;;;1.70;;
19364;SDS011;9818;48.382;10.850;2022-08-21T01:43:30;1.77;;;1.67;;
19364;SDS011;9818;48.382;10.850;2022-08-21T01:46:02;2.63;;;1.70;;
19364;SDS011;9818;48.382;10.850;2022-08-21T01:48:31;2.43;;;1.60;;
19364;SDS011;9818;48.382;10.850;2022-08-21T01:51:01;2.53;;;1.50;;
19364;SDS011;9818;48.382;10.850;2022-08-21T01:53:30;1.80;;;1.70;;
19364;SDS011;9818;48.382;10.850;2022-08-21T01:56:01;1.70;;;1.57;;
19364;SDS011;9818;48.382;10.850;2022-08-21T01:58:31;1.77;;;1.67;;
19364;SDS011;9818;48.382;10.850;2022-08-21T02:01:03;1.87;;;1.53;;
19364;SDS011;9818;48.382;10.850;2022-08-21T02:03:33;3.03;;;1.60;;
19364;SDS011;9818;48.382;10.850;2022-08-21T02:06:02;1.37;;;1.27;;
19364;SDS011;9818;48.382;10.850;2022-08-21T02:08:32;2.40;;;1.77;;
19364;SDS011;9818;48.382;10.850;2022-08-21T02:11:02;2.53;;;1.83;;
19364;SDS011;9818;48.382;10.850;2022-08-21T02:13:31;1.97;;;1.80;;
19364;SDS011;9818;48.382;10.850;2022-08-21T02:16:03;2.10;;;1.90;;
19364;SDS011;9818;48.382;10.850;2022-08-21T02:18:33;1.63;;;1.53;;
19364;SDS011;9818;48.382;10.850;2022-08-21T02:21:03;1.73;;;1.57;;
19364;SDS011;9818;48.382;10.850;2022-08-21T02:23:33;2.47;;;1.93;;
19364;SDS011;9818;48.382;10.850;2022-08-21T02:26:07;2.60;;;2.00;;
19364;SDS011;9818;48.382;10.850;2022-08-21T02:28:37;3.23;;;1.83;;
19364;SDS011;9818;48.382;10.850;2022-08-21T02:31:10;2.70;;;1.90;;
19364;SDS011;9818;48.382;10.850;2022-08-21T02:33:39;3.57;;;1.77;;
19364;SDS011;9818;48.382;10.850;2022-08-21T02:36:09;2.83;;;2.10;;
19364;SDS011;9818;48.382;10.850;2022-08-21T02:38:40;1.87;;;1.77;;
19364;SDS011;9818;48.382;10.850;2022-08-21T02:41:12;1.90;;;1.63;;
19364;SDS011;9818;48.382;10.850;2022-08-21T02:43:45;2.23;;;1.90;;
19364;SDS011;9818;48.382;10.850;2022-08-21T02:46:20;3.77;;;1.80;;
19364;SDS011;9818;48.382;10.850;2022-08-21T02:48:52;2.40;;;2.20;;
19364;SDS011;9818;48.382;10.850;2022-08-21T02:51:25;3.80;;;1.83;;
19364;SDS011;9818;48.382;10.850;2022-08-21T02:53:55;3.97;;;2.27;;
19364;SDS011;9818;48.382;10.850;2022-08-21T02:56:27;2.27;;;2.07;;
19364;SDS011;9818;48.382;10.850;2022-08-21T02:59:10;2.83;;;2.07;;
19364;SDS011;9818;48.382;10.850;2022-08-21T03:01:46;4.63;;;2.10;;
19364;SDS011;9818;48.382;10.850;2022-08-21T03:04:23;2.10;;;1.90;;
19364;SDS011;9818;48.382;10.850;2022-08-21T03:06:56;2.07;;;1.70;;
19364;SDS011;9818;48.382;10.850;2022-08-21T03:09:31;2.13;;;1.93;;
19364;SDS011;9818;48.382;10.850;2022-08-21T03:12:09;2.00;;;1.80;;
19364;SDS011;9818;48.382;10.850;2022-08-21T03:14:44;2.13;;;1.93;;
19364;SDS011;9818;48.382;10.850;2022-08-21T03:17:22;2.33;;;2.13;;
19364;SDS011;9818;48.382;10.850;2022-08-21T03:19:53;2.40;;;2.10;;
19364;SDS011;9818;48.382;10.850;2022-08-21T03:22:22;2.33;;;1.67;;
19364;SDS011;9818;48.382;10.850;2022-08-21T03:24:51;2.70;;;1.80;;
19364;SDS011;9818;48.382;10.850;2022-08-21T03:27:20;2.63;;;1.97;;
19364;SDS011;9818;48.382;10.850;2022-08-21T03:29:51;2.13;;;1.93;;
19364;SDS011;9818;48.382;10.850;2022-08-21T03:32:24;2.20;;;2.00;;
19364;SDS011;9818;48.382;10.850;2022-08-21T03:34:54;2.50;;;1.90;;
19364;SDS011;9818;48.382;10.850;2022-08-21T03:37:26;2.10;;;2.00;;
19364;SDS011;9818;48.382;10.850;2022-08-21T03:39:55;2.47;;;2.10;;
19364;SDS011;9818;48.382;10.850;2022-08-21T03:42:23;2.67;;;2.20;;
19364;SDS011;9818;48.382;10.850;2022-08-21T03:44:53;2.27;;;1.80;;
19364;SDS011;9818;48.382;10.850;2022-08-21T03:47:24;2.20;;;2.00;;
19364;SDS011;9818;48.382;10.850;2022-08-21T03:49:53;2.43;;;1.97;;
19364;SDS011;9818;48.382;10.850;2022-08-21T03:52:22;2.47;;;2.27;;
19364;SDS011;9818;48.382;10.850;2022-08-21T03:54:52;2.50;;;2.30;;
19364;SDS011;9818;48.382;10.850;2022-08-21T03:57:21;2.37;;;2.10;;
19364;SDS011;9818;48.382;10.850;2022-08-21T03:59:53;2.07;;;1.87;;
19364;SDS011;9818;48.382;10.850;2022-08-21T04:02:26;2.83;;;2.13;;
19364;SDS011;9818;48.382;10.850;2022-08-21T04:04:55;3.63;;;2.20;;
19364;SDS011;9818;48.382;10.850;2022-08-21T04:07:26;2.20;;;2.00;;
19364;SDS011;9818;48.382;10.850;2022-08-21T04:09:55;2.53;;;2.23;;
19364;SDS011;9818;48.382;10.850;2022-08-21T04:12:25;1.70;;;1.60;;
19364;SDS011;9818;48.382;10.850;2022-08-21T04:14:56;2.47;;;2.27;;
19364;SDS011;9818;48.382;10.850;2022-08-21T04:17:31;2.37;;;2.17;;
19364;SDS011;9818;48.382;10.850;2022-08-21T04:20:02;2.13;;;1.70;;
19364;SDS011;9818;48.382;10.850;2022-08-21T04:22:32;2.40;;;2.03;;
19364;SDS011;9818;48.382;10.850;2022-08-21T04:25:01;4.27;;;2.07;;
19364;SDS011;9818;48.382;10.850;2022-08-21T04:27:30;4.60;;;2.17;;
19364;SDS011;9818;48.382;10.850;2022-08-21T04:29:59;2.63;;;2.13;;
19364;SDS011;9818;48.382;10.850;2022-08-21T04:32:31;2.07;;;1.87;;
19364;SDS011;9818;48.382;10.850;2022-08-21T04:35:00;2.63;;;2.43;;
19364;SDS011;9818;48.382;10.850;2022-08-21T04:37:31;3.23;;;2.10;;
19364;SDS011;9818;48.382;10.850;2022-08-21T04:40:00;2.80;;;2.20;;
19364;SDS011;9818;48.382;10.850;2022-08-21T04:42:29;2.63;;;2.27;;
19364;SDS011;9818;48.382;10.850;2022-08-21T04:44:58;2.53;;;2.07;;
19364;SDS011;9818;48.382;10.850;2022-08-21T04:47:27;2.73;;;1.93;;
19364;SDS011;9818;48.382;10.850;2022-08-21T04:49:59;2.20;;;2.00;;
19364;SDS011;9818;48.382;10.850;2022-08-21T04:52:28;3.70;;;2.23;;
19364;SDS011;9818;48.382;10.850;2022-08-21T04:54:58;2.60;;;2.40;;
19364;SDS011;9818;48.382;10.850;2022-08-21T04:57:28;2.73;;;2.20;;
19364;SDS011;9818;48.382;10.850;2022-08-21T04:59:57;3.07;;;2.40;;
19364;SDS011;9818;48.382;10.850;2022-08-21T05:02:26;2.30;;;2.10;;
19364;SDS011;9818;48.382;10.850;2022-08-21T05:05:01;3.43;;;2.20;;
19364;SDS011;9818;48.382;10.850;2022-08-21T05:07:32;2.33;;;2.13;;
19364;SDS011;9818;48.382;10.850;2022-08-21T05:10:02;2.37;;;2.17;;
19364;SDS011;9818;48.382;10.850;2022-08-21T05:12:33;2.23;;;2.03;;
19364;SDS011;9818;48.382;10.850;2022-08-21T05:15:03;2.57;;;2.07;;
19364;SDS011;9818;48.382;10.850;2022-08-21T05:17:32;1.90;;;1.80;;
19364;SDS011;9818;48.382;10.850;2022-08-21T05:20:03;2.40;;;2.20;;
19364;SDS011;9818;48.382;10.850;2022-08-21T05:22:32;2.43;;;2.13;;
19364;SDS011;9818;48.382;10.850;2022-08-21T05:25:02;3.00;;;1.80;;
19364;SDS011;9818;48.382;10.850;2022-08-21T05:27:31;1.90;;;1.80;;
19364;SDS011;9818;48.382;10.850;2022-08-21T05:32:29;4.33;;;1.90;;
19364;SDS011;9818;48.382;10.850;2022-08-21T05:34:58;2.07;;;1.87;;
19364;SDS011;9818;48.382;10.850;2022-08-21T05:37:29;2.40;;;1.87;;
19364;SDS011;9818;48.382;10.850;2022-08-21T05:39:59;2.30;;;1.70;;
19364;SDS011;9818;48.382;10.850;2022-08-21T05:42:28;2.43;;;1.70;;
19364;SDS011;9818;48.382;10.850;2022-08-21T05:44:57;1.83;;;1.73;;
19364;SDS011;9818;48.382;10.850;2022-08-21T05:49:54;3.40;;;1.53;;
19364;SDS011;9818;48.382;10.850;2022-08-21T05:52:23;2.97;;;1.40;;
19364;SDS011;9818;48.382;10.850;2022-08-21T05:57:23;1.57;;;1.40;;
19364;SDS011;9818;48.382;10.850;2022-08-21T05:59:51;2.20;;;1.43;;
19364;SDS011;9818;48.382;10.850;2022-08-21T06:02:21;2.03;;;1.40;;
19364;SDS011;9818;48.382;10.850;2022-08-21T06:42:05;1.25;;;0.95;;
19364;SDS011;9818;48.382;10.850;2022-08-21T06:44:34;1.58;;;1.30;;
19364;SDS011;9818;48.382;10.850;2022-08-21T06:47:05;1.63;;;0.95;;
19364;SDS011;9818;48.382;10.850;2022-08-21T06:49:34;1.70;;;1.30;;
19364;SDS011;9818;48.382;10.850;2022-08-21T06:52:03;2.05;;;1.10;;
19364;SDS011;9818;48.382;10.850;2022-08-21T06:54:36;1.40;;;1.10;;
19364;SDS011;9818;48.382;10.850;2022-08-21T06:57:04;1.20;;;1.10;;
19364;SDS011;9818;48.382;10.850;2022-08-21T06:59:33;1.40;;;1.15;;
19364;SDS011;9818;48.382;10.850;2022-08-21T07:02:05;1.77;;;1.20;;
19364;SDS011;9818;48.382;10.850;2022-08-21T07:04:34;1.23;;;1.00;;
19364;SDS011;9818;48.382;10.850;2022-08-21T07:07:03;2.42;;;1.38;;
19364;SDS011;9818;48.382;10.850;2022-08-21T07:09:32;1.63;;;1.20;;
19364;SDS011;9818;48.382;10.850;2022-08-21T07:14:30;1.80;;;1.30;;
19364;SDS011;9818;48.382;10.850;2022-08-21T07:16:59;1.73;;;1.30;;
19364;SDS011;9818;48.382;10.850;2022-08-21T07:19:31;1.60;;;1.30;;
19364;SDS011;9818;48.382;10.850;2022-08-21T07:22:00;4.05;;;2.08;;
19364;SDS011;9818;48.382;10.850;2022-08-21T07:24:32;1.67;;;1.50;;
19364;SDS011;9818;48.382;10.850;2022-08-21T07:27:00;1.73;;;1.55;;
19364;SDS011;9818;48.382;10.850;2022-08-21T07:29:29;1.48;;;1.38;;
19364;SDS011;9818;48.382;10.850;2022-08-21T07:31:58;2.03;;;1.52;;
19364;SDS011;9818;48.382;10.850;2022-08-21T07:34:27;2.30;;;1.33;;
19364;SDS011;9818;48.382;10.850;2022-08-21T07:36:58;1.45;;;1.35;;
19364;SDS011;9818;48.382;10.850;2022-08-21T07:39:27;2.40;;;1.40;;
19364;SDS011;9818;48.382;10.850;2022-08-21T07:41:56;1.52;;;1.42;;
19364;SDS011;9818;48.382;10.850;2022-08-21T07:44:25;2.30;;;1.55;;
19364;SDS011;9818;48.382;10.850;2022-08-21T07:46:53;1.23;;;1.13;;
19364;SDS011;9818;48.382;10.850;2022-08-21T07:49:22;2.40;;;1.30;;
19364;SDS011;9818;48.382;10.850;2022-08-21T07:51:54;1.60;;;1.13;;
19364;SDS011;9818;48.382;10.850;2022-08-21T07:54:25;1.75;;;1.60;;
19364;SDS011;9818;48.382;10.850;2022-08-21T07:56:54;1.60;;;1.33;;
19364;SDS011;9818;48.382;10.850;2022-08-21T07:59:23;1.92;;;1.70;;
19364;SDS011;9818;48.382;10.850;2022-08-21T08:01:52;2.85;;;1.58;;
19364;SDS011;9818;48.382;10.850;2022-08-21T08:04:21;4.40;;;1.52;;
19364;SDS011;9818;48.382;10.850;2022-08-21T08:06:50;2.60;;;1.70;;
19364;SDS011;9818;48.382;10.850;2022-08-21T08:09:19;2.25;;;1.90;;
19364;SDS011;9818;48.382;10.850;2022-08-21T08:11:51;1.90;;;1.55;;
19364;SDS011;9818;48.382;10.850;2022-08-21T08:14:20;2.17;;;1.50;;
19364;SDS011;9818;48.382;10.850;2022-08-21T08:16:48;2.40;;;1.50;;
19364;SDS011;9818;48.382;10.850;2022-08-21T08:19:17;1.65;;;1.50;;
19364;SDS011;9818;48.382;10.850;2022-08-21T08:21:46;1.95;;;1.70;;
19364;SDS011;9818;48.382;10.850;2022-08-21T08:51:40;2.15;;;1.90;;
19364;SDS011;9818;48.382;10.850;2022-08-21T08:54:15;2.58;;;2.22;;
19364;SDS011;9818;48.382;10.850;2022-08-21T08:56:50;2.83;;;2.20;;
19364;SDS011;9818;48.382;10.850;2022-08-21T08:59:22;1.85;;;1.73;;
19364;SDS011;9818;48.382;10.850;2022-08-21T09:01:57;2.05;;;1.95;;
19364;SDS011;9818;48.382;10.850;2022-08-21T09:04:26;1.90;;;1.80;;
19364;SDS011;9818;48.382;10.850;2022-08-21T09:06:59;2.35;;;1.98;;
19364;SDS011;9818;48.382;10.850;2022-08-21T09:09:43;1.50;;;1.40;;
19364;SDS011;9818;48.382;10.850;2022-08-21T09:12:28;1.63;;;1.52;;
19364;SDS011;9818;48.382;10.850;2022-08-21T09:15:03;2.35;;;2.08;;
19364;SDS011;9818;48.382;10.850;2022-08-21T09:17:49;2.35;;;2.15;;
19364;SDS011;9818;48.382;10.850;2022-08-21T09:20:29;2.72;;;2.50;;
19364;SDS011;9818;48.382;10.850;2022-08-21T09:23:05;2.38;;;2.17;;
19364;SDS011;9818;48.382;10.850;2022-08-21T09:25:45;2.35;;;2.00;;
19364;SDS011;9818;48.382;10.850;2022-08-21T09:28:20;5.65;;;2.33;;
19364;SDS011;9818;48.382;10.850;2022-08-21T09:30:49;3.25;;;2.95;;
19364;SDS011;9818;48.382;10.850;2022-08-21T09:33:25;2.42;;;2.22;;
19364;SDS011;9818;48.382;10.850;2022-08-21T09:35:55;2.90;;;2.08;;
19364;SDS011;9818;48.382;10.850;2022-08-21T09:38:26;2.83;;;2.33;;
19364;SDS011;9818;48.382;10.850;2022-08-21T09:40:58;2.50;;;2.30;;
19364;SDS011;9818;48.382;10.850;2022-08-21T09:43:30;3.00;;;2.28;;
19364;SDS011;9818;48.382;10.850;2022-08-21T09:46:04;2.30;;;2.10;;
19364;SDS011;9818;48.382;10.850;2022-08-21T09:48:42;6.03;;;2.40;;
19364;SDS011;9818;48.382;10.850;2022-08-21T09:51:14;6.80;;;2.47;;
19364;SDS011;9818;48.382;10.850;2022-08-21T09:53:45;2.55;;;2.00;;
19364;SDS011;9818;48.382;10.850;2022-08-21T09:56:18;2.95;;;2.28;;
19364;SDS011;9818;48.382;10.850;2022-08-21T09:59:12;2.80;;;2.50;;
19364;SDS011;9818;48.382;10.850;2022-08-21T10:01:47;2.60;;;2.22;;
19364;SDS011;9818;48.382;10.850;2022-08-21T10:04:27;2.35;;;1.85;;
19364;SDS011;9818;48.382;10.850;2022-08-21T10:07:05;3.10;;;2.20;;
19364;SDS011;9818;48.382;10.850;2022-08-21T10:09:36;3.20;;;2.08;;
19364;SDS011;9818;48.382;10.850;2022-08-21T10:12:09;3.42;;;2.38;;
19364;SDS011;9818;48.382;10.850;2022-08-21T10:14:45;2.33;;;2.10;;
19364;SDS011;9818;48.382;10.850;2022-08-21T10:17:22;2.17;;;1.98;;
19364;SDS011;9818;48.382;10.850;2022-08-21T10:20:02;2.35;;;2.15;;
19364;SDS011;9818;48.382;10.850;2022-08-21T10:22:38;2.45;;;1.83;;
19364;SDS011;9818;48.382;10.850;2022-08-21T10:25:14;4.35;;;2.28;;
19364;SDS011;9818;48.382;10.850;2022-08-21T10:27:52;3.67;;;2.33;;
19364;SDS011;9818;48.382;10.850;2022-08-21T10:30:31;2.38;;;1.92;;
19364;SDS011;9818;48.382;10.850;2022-08-21T10:33:12;2.22;;;2.03;;
19364;SDS011;9818;48.382;10.850;2022-08-21T10:35:57;2.45;;;2.25;;
19364;SDS011;9818;48.382;10.850;2022-08-21T10:38:52;3.00;;;2.17;;
19364;SDS011;9818;48.382;10.850;2022-08-21T10:41:40;3.92;;;2.05;;
19364;SDS011;9818;48.382;10.850;2022-08-21T10:44:21;2.47;;;2.28;;
19364;SDS011;9818;48.382;10.850;2022-08-21T10:46:58;2.40;;;1.83;;
19364;SDS011;9818;48.382;10.850;2022-08-21T10:49:34;3.47;;;2.20;;
19364;SDS011;9818;48.382;10.850;2022-08-21T10:52:20;2.38;;;1.85;;
19364;SDS011;9818;48.382;10.850;2022-08-21T11:05:07;2.13;;;1.92;;
19364;SDS011;9818;48.382;10.850;2022-08-21T11:07:46;2.20;;;2.00;;
19364;SDS011;9818;48.382;10.850;2022-08-21T11:10:21;2.65;;;1.90;;
19364;SDS011;9818;48.382;10.850;2022-08-21T11:12:52;2.42;;;1.73;;
19364;SDS011;9818;48.382;10.850;2022-08-21T11:15:25;3.38;;;1.80;;
19364;SDS011;9818;48.382;10.850;2022-08-21T11:18:01;2.33;;;2.03;;
19364;SDS011;9818;48.382;10.850;2022-08-21T11:20:43;3.70;;;2.00;;
19364;SDS011;9818;48.382;10.850;2022-08-21T11:25:52;2.55;;;2.10;;
19364;SDS011;9818;48.382;10.850;2022-08-21T11:38:45;4.45;;;4.05;;
19364;SDS011;9818;48.382;10.850;2022-08-21T11:41:23;4.13;;;3.70;;
19364;SDS011;9818;48.382;10.850;2022-08-21T11:44:02;7.07;;;6.47;;
19364;SDS011;9818;48.382;10.850;2022-08-21T11:46:39;3.53;;;3.13;;
19364;SDS011;9818;48.382;10.850;2022-08-21T11:49:25;4.00;;;3.60;;
19364;SDS011;9818;48.382;10.850;2022-08-21T11:57:13;2.53;;;1.83;;
19364;SDS011;9818;48.382;10.850;2022-08-21T11:59:48;4.32;;;2.10;;
19364;SDS011;9818;48.382;10.850;2022-08-21T12:02:23;2.40;;;1.88;;
19364;SDS011;9818;48.382;10.850;2022-08-21T12:05:06;2.97;;;1.98;;
19364;SDS011;9818;48.382;10.850;2022-08-21T12:07:38;3.03;;;2.30;;
19364;SDS011;9818;48.382;10.850;2022-08-21T12:10:12;3.13;;;2.20;;
19364;SDS011;9818;48.382;10.850;2022-08-21T12:26:02;3.17;;;1.98;;
19364;SDS011;9818;48.382;10.850;2022-08-21T14:49:41;2.10;;;1.90;;
19364;SDS011;9818;48.382;10.850;2022-08-21T17:51:40;2.20;;;1.50;;
19364;SDS011;9818;48.382;10.850;2022-08-21T17:54:11;2.60;;;1.50;;
19364;SDS011;9818;48.382;10.850;2022-08-21T17:56:40;5.03;;;1.93;;
19364;SDS011;9818;48.382;10.850;2022-08-21T17:59:09;2.20;;;1.80;;
19364;SDS011;9818;48.382;10.850;2022-08-21T18:01:40;2.57;;;1.97;;
19364;SDS011;9818;48.382;10.850;2022-08-21T18:04:11;2.10;;;1.70;;
19364;SDS011;9818;48.382;10.850;2022-08-21T18:06:41;2.53;;;2.10;;
19364;SDS011;9818;48.382;10.850;2022-08-21T18:09:13;1.90;;;1.70;;
19364;SDS011;9818;48.382;10.850;2022-08-21T18:29:11;3.00;;;1.70;;
19364;SDS011;9818;48.382;10.850;2022-08-21T18:31:42;2.93;;;2.03;;
19364;SDS011;9818;48.382;10.850;2022-08-21T18:34:16;3.00;;;1.77;;
19364;SDS011;9818;48.382;10.850;2022-08-21T18:36:53;3.17;;;2.10;;
19364;SDS011;9818;48.382;10.850;2022-08-21T18:39:25;3.30;;;2.20;;
19364;SDS011;9818;48.382;10.850;2022-08-21T18:41:55;2.87;;;2.03;;
19364;SDS011;9818;48.382;10.850;2022-08-21T18:44:25;2.10;;;1.90;;
19364;SDS011;9818;48.382;10.850;2022-08-21T18:46:55;6.90;;;2.10;;
19364;SDS011;9818;48.382;10.850;2022-08-21T18:49:27;1.80;;;1.40;;
19364;SDS011;9818;48.382;10.850;2022-08-21T18:51:56;2.20;;;1.60;;
19364;SDS011;9818;48.382;10.850;2022-08-21T18:54:27;2.53;;;2.30;;
19364;SDS011;9818;48.382;10.850;2022-08-21T18:56:56;4.27;;;2.30;;
19364;SDS011;9818;48.382;10.850;2022-08-21T18:59:25;3.03;;;2.60;;
19364;SDS011;9818;48.382;10.850;2022-08-21T19:01:55;2.90;;;2.13;;
19364;SDS011;9818;48.382;10.850;2022-08-21T19:04:24;2.67;;;2.43;;
19364;SDS011;9818;48.382;10.850;2022-08-21T19:06:53;3.90;;;2.30;;
19364;SDS011;9818;48.382;10.850;2022-08-21T19:09:22;2.63;;;2.37;;
19364;SDS011;9818;48.382;10.850;2022-08-21T19:11:54;4.03;;;2.40;;
19364;SDS011;9818;48.382;10.850;2022-08-21T19:14:23;2.40;;;2.20;;
19364;SDS011;9818;48.382;10.850;2022-08-21T19:16:52;3.00;;;2.50;;
19364;SDS011;9818;48.382;10.850;2022-08-21T19:19:21;2.37;;;2.00;;
19364;SDS011;9818;48.382;10.850;2022-08-21T19:21:50;2.63;;;2.20;;
19364;SDS011;9818;48.382;10.850;2022-08-21T19:24:18;4.07;;;2.40;;
19364;SDS011;9818;48.382;10.850;2022-08-21T19:26:48;3.57;;;2.20;;
19364;SDS011;9818;48.382;10.850;2022-08-21T19:29:20;2.80;;;2.47;;
19364;SDS011;9818;48.382;10.850;2022-08-21T19:31:48;4.07;;;2.53;;
19364;SDS011;9818;48.382;10.850;2022-08-21T19:34:18;3.20;;;2.90;;
19364;SDS011;9818;48.382;10.850;2022-08-21T19:36:49;3.37;;;2.63;;
19364;SDS011;9818;48.382;10.850;2022-08-21T19:39:20;3.20;;;2.10;;
19364;SDS011;9818;48.382;10.850;2022-08-21T19:41:51;3.20;;;2.27;;
19364;SDS011;9818;48.382;10.850;2022-08-21T19:44:26;3.37;;;2.20;;
19364;SDS011;9818;48.382;10.850;2022-08-21T19:46:58;2.27;;;2.07;;
19364;SDS011;9818;48.382;10.850;2022-08-21T19:49:28;3.93;;;2.10;;
19364;SDS011;9818;48.382;10.850;2022-08-21T19:51:58;5.20;;;2.00;;
19364;SDS011;9818;48.382;10.850;2022-08-21T19:54:29;2.90;;;2.00;;
19364;SDS011;9818;48.382;10.850;2022-08-21T19:57:00;2.40;;;2.10;;
19364;SDS011;9818;48.382;10.850;2022-08-21T19:59:35;2.53;;;2.30;;
19364;SDS011;9818;48.382;10.850;2022-08-21T20:02:05;4.23;;;2.63;;
19364;SDS011;9818;48.382;10.850;2022-08-21T20:04:36;2.87;;;2.17;;
19364;SDS011;9818;48.382;10.850;2022-08-21T20:07:05;4.50;;;2.67;;
19364;SDS011;9818;48.382;10.850;2022-08-21T20:09:34;2.70;;;2.40;;
19364;SDS011;9818;48.382;10.850;2022-08-21T20:12:04;2.50;;;2.00;;
19364;SDS011;9818;48.382;10.850;2022-08-21T20:14:39;5.33;;;2.60;;
19364;SDS011;9818;48.382;10.850;2022-08-21T20:17:12;3.60;;;2.40;;
19364;SDS011;9818;48.382;10.850;2022-08-21T20:19:44;2.50;;;2.30;;
19364;SDS011;9818;48.382;10.850;2022-08-21T20:22:14;4.20;;;3.23;;
19364;SDS011;9818;48.382;10.850;2022-08-21T20:24:43;4.43;;;3.00;;
19364;SDS011;9818;48.382;10.850;2022-08-21T20:27:19;5.00;;;2.40;;
19364;SDS011;9818;48.382;10.850;2022-08-21T20:29:53;3.50;;;2.33;;
19364;SDS011;9818;48.382;10.850;2022-08-21T20:32:23;3.80;;;2.70;;
19364;SDS011;9818;48.382;10.850;2022-08-21T20:34:52;3.83;;;2.77;;
19364;SDS011;9818;48.382;10.850;2022-08-21T20:37:22;3.10;;;2.60;;
19364;SDS011;9818;48.382;10.850;2022-08-21T20:39:54;3.17;;;2.83;;
19364;SDS011;9818;48.382;10.850;2022-08-21T20:42:24;4.57;;;2.97;;
19364;SDS011;9818;48.382;10.850;2022-08-21T20:44:57;3.43;;;2.40;;
19364;SDS011;9818;48.382;10.850;2022-08-21T20:47:29;2.77;;;2.40;;
19364;SDS011;9818;48.382;10.850;2022-08-21T20:50:00;2.23;;;1.97;;
19364;SDS011;9818;48.382;10.850;2022-08-21T20:52:33;3.27;;;2.70;;
19364;SDS011;9818;48.382;10.850;2022-08-21T20:55:07;2.60;;;2.40;;
19364;SDS011;9818;48.382;10.850;2022-08-21T20:57:42;2.63;;;2.33;;
19364;SDS011;9818;48.382;10.850;2022-08-21T21:00:20;4.47;;;2.50;;
19364;SDS011;9818;48.382;10.850;2022-08-21T21:02:52;4.57;;;2.97;;
19364;SDS011;9818;48.382;10.850;2022-08-21T21:05:28;4.90;;;2.53;;
19364;SDS011;9818;48.382;10.850;2022-08-21T21:08:02;4.60;;;3.33;;
19364;SDS011;9818;48.382;10.850;2022-08-21T21:10:37;3.20;;;2.73;;
19364;SDS011;9818;48.382;10.850;2022-08-21T21:13:12;3.10;;;2.70;;
19364;SDS011;9818;48.382;10.850;2022-08-21T21:15:50;4.70;;;3.50;;
19364;SDS011;9818;48.382;10.850;2022-08-21T21:18:25;3.67;;;2.80;;
19364;SDS011;9818;48.382;10.850;2022-08-21T21:21:06;6.10;;;3.23;;
19364;SDS011;9818;48.382;10.850;2022-08-21T21:23:41;3.53;;;2.40;;
19364;SDS011;9818;48.382;10.850;2022-08-21T21:26:19;3.53;;;2.40;;
19364;SDS011;9818;48.382;10.850;2022-08-21T21:28:58;4.63;;;2.50;;
19364;SDS011;9818;48.382;10.850;2022-08-21T21:31:36;3.30;;;2.63;;
19364;SDS011;9818;48.382;10.850;2022-08-21T21:34:07;6.70;;;2.73;;
19364;SDS011;9818;48.382;10.850;2022-08-21T21:36:39;4.17;;;2.50;;
19364;SDS011;9818;48.382;10.850;2022-08-21T21:39:12;3.10;;;2.50;;
19364;SDS011;9818;48.382;10.850;2022-08-21T21:41:48;2.37;;;2.03;;
19364;SDS011;9818;48.382;10.850;2022-08-21T21:44:26;2.63;;;2.33;;
19364;SDS011;9818;48.382;10.850;2022-08-21T21:47:22;3.13;;;2.50;;
19364;SDS011;9818;48.382;10.850;2022-08-21T21:50:23;3.33;;;2.63;;
19364;SDS011;9818;48.382;10.850;2022-08-21T21:53:05;3.07;;;2.40;;
19364;SDS011;9818;48.382;10.850;2022-08-21T21:55:47;2.57;;;2.33;;
19364;SDS011;9818;48.382;10.850;2022-08-21T21:58:30;3.20;;;2.20;;
19364;SDS011;9818;48.382;10.850;2022-08-21T22:01:26;3.23;;;2.50;;
19364;SDS011;9818;48.382;10.850;2022-08-21T22:04:07;2.57;;;2.37;;
19364;SDS011;9818;48.382;10.850;2022-08-21T22:06:46;2.63;;;2.30;;
19364;SDS011;9818;48.382;10.850;2022-08-21T22:09:31;2.87;;;2.47;;
19364;SDS011;9818;48.382;10.850;2022-08-21T22:12:14;4.97;;;2.37;;
19364;SDS011;9818;48.382;10.850;2022-08-21T22:14:54;2.77;;;2.47;;
19364;SDS011;9818;48.382;10.850;2022-08-21T22:17:29;4.23;;;2.37;;
19364;SDS011;9818;48.382;10.850;2022-08-21T22:20:06;3.23;;;2.73;;
19364;SDS011;9818;48.382;10.850;2022-08-21T22:22:41;3.53;;;2.60;;
19364;SDS011;9818;48.382;10.850;2022-08-21T22:25:14;3.47;;;2.23;;
19364;SDS011;9818;48.382;10.850;2022-08-21T22:27:45;2.47;;;2.23;;
19364;SDS011;9818;48.382;10.850;2022-08-21T22:30:35;3.73;;;2.63;;
19364;SDS011;9818;48.382;10.850;2022-08-21T22:33:08;3.63;;;2.93;;
19364;SDS011;9818;48.382;10.850;2022-08-21T22:35:42;3.87;;;2.40;;
19364;SDS011;9818;48.382;10.850;2022-08-21T22:38:17;3.23;;;2.50;;
19364;SDS011;9818;48.382;10.850;2022-08-21T22:41:08;2.40;;;2.20;;
19364;SDS011;9818;48.382;10.850;2022-08-21T22:43:49;3.60;;;2.63;;
19364;SDS011;9818;48.382;10.850;2022-08-21T22:46:24;4.70;;;2.57;;
19364;SDS011;9818;48.382;10.850;2022-08-21T22:48:57;2.80;;;2.37;;
19364;SDS011;9818;48.382;10.850;2022-08-21T22:51:33;5.73;;;2.80;;
19364;SDS011;9818;48.382;10.850;2022-08-21T22:54:04;3.03;;;2.50;;
19364;SDS011;9818;48.382;10.850;2022-08-21T22:56:38;3.73;;;2.10;;
19364;SDS011;9818;48.382;10.850;2022-08-21T22:59:09;2.80;;;2.00;;
19364;SDS011;9818;48.382;10.850;2022-08-21T23:01:53;2.40;;;2.17;;
19364;SDS011;9818;48.382;10.850;2022-08-21T23:04:26;2.20;;;2.00;;
19364;SDS011;9818;48.382;10.850;2022-08-21T23:06:58;2.40;;;2.20;;
19364;SDS011;9818;48.382;10.850;2022-08-21T23:09:30;2.70;;;2.23;;
19364;SDS011;9818;48.382;10.850;2022-08-21T23:12:02;3.67;;;2.97;;
19364;SDS011;9818;48.382;10.850;2022-08-21T23:14:33;2.83;;;2.60;;
19364;SDS011;9818;48.382;10.850;2022-08-21T23:17:03;2.83;;;2.50;;